sensor_id;sensor_type;location;lat;lon;timestamp;P1;durP1;ratioP1;P2;durP2;ratioP2
74670;SDS011;63196;39.564;2.628;2023-08-08T00:00:47;0.00;;;0.00;;
74670;SDS011;63196;39.564;2.628;2023-08-08T00:03:13;0.00;;;0.00;;
74670;SDS011;63196;39.564;2.628;2023-08-08T00:05:38;0.10;;;0.10;;
74670;SDS011;63196;39.564;2.628;2023-08-08T00:08:04;0.10;;;0.10;;
74670;SDS011;63196;39.564;2.628;2023-08-08T00:10:29;0.10;;;0.00;;
74670;SDS011;63196;39.564;2.628;2023-08-08T00:12:54;0.00;;;0.00;;
74670;SDS011;63196;39.564;2.628;2023-08-08T00:15:20;0.00;;;0.00;;
74670;SDS011;63196;39.564;2.628;2023-08-08T00:17:45;0.00;;;0.00;;
74670;SDS011;63196;39.564;2.628;2023-08-08T00:20:10;0.00;;;0.00;;
74670;SDS011;63196;39.564;2.628;2023-08-08T00:22:36;0.00;;;0.00;;
74670;SDS011;63196;39.564;2.628;2023-08-08T00:25:01;0.00;;;0.00;;
74670;SDS011;63196;39.564;2.628;2023-08-08T00:27:27;0.00;;;0.00;;
74670;SDS011;63196;39.564;2.628;2023-08-08T00:29:52;0.10;;;0.10;;
74670;SDS011;63196;39.564;2.628;2023-08-08T00:32:18;0.00;;;0.00;;
74670;SDS011;63196;39.564;2.628;2023-08-08T00:34:44;0.00;;;0.00;;
74670;SDS011;63196;39.564;2.628;2023-08-08T00:37:09;0.00;;;0.00;;
74670;SDS011;63196;39.564;2.628;2023-08-08T00:39:35;0.00;;;0.00;;
74670;SDS011;63196;39.564;2.628;2023-08-08T00:42:00;0.00;;;0.00;;
74670;SDS011;63196;39.564;2.628;2023-08-08T00:44:25;0.00;;;0.00;;
74670;SDS011;63196;39.564;2.628;2023-08-08T00:46:51;0.00;;;0.00;;
74670;SDS011;63196;39.564;2.628;2023-08-08T00:49:16;0.00;;;0.00;;
74670;SDS011;63196;39.564;2.628;2023-08-08T00:51:42;0.00;;;0.00;;
74670;SDS011;63196;39.564;2.628;2023-08-08T00:54:07;0.00;;;0.00;;
74670;SDS011;63196;39.564;2.628;2023-08-08T00:56:34;0.00;;;0.00;;
74670;SDS011;63196;39.564;2.628;2023-08-08T00:59:00;0.00;;;0.00;;
74670;SDS011;63196;39.564;2.628;2023-08-08T01:01:27;0.00;;;0.00;;
74670;SDS011;63196;39.564;2.628;2023-08-08T01:03:52;0.00;;;0.00;;
74670;SDS011;63196;39.564;2.628;2023-08-08T01:06:29;0.20;;;0.20;;
74670;SDS011;63196;39.564;2.628;2023-08-08T01:08:58;0.00;;;0.00;;
74670;SDS011;63196;39.564;2.628;2023-08-08T01:11:25;0.00;;;0.00;;
74670;SDS011;63196;39.564;2.628;2023-08-08T01:13:51;0.10;;;0.00;;
74670;SDS011;63196;39.564;2.628;2023-08-08T01:16:17;0.00;;;0.00;;
74670;SDS011;63196;39.564;2.628;2023-08-08T01:18:43;0.00;;;0.00;;
74670;SDS011;63196;39.564;2.628;2023-08-08T01:21:09;0.00;;;0.00;;
74670;SDS011;63196;39.564;2.628;2023-08-08T01:23:42;0.00;;;0.00;;
74670;SDS011;63196;39.564;2.628;2023-08-08T01:26:09;0.00;;;0.00;;
74670;SDS011;63196;39.564;2.628;2023-08-08T01:28:34;0.10;;;0.10;;
74670;SDS011;63196;39.564;2.628;2023-08-08T01:31:00;0.10;;;0.10;;
74670;SDS011;63196;39.564;2.628;2023-08-08T01:33:25;0.00;;;0.00;;
74670;SDS011;63196;39.564;2.628;2023-08-08T01:35:53;0.00;;;0.00;;
74670;SDS011;63196;39.564;2.628;2023-08-08T01:38:20;0.00;;;0.00;;
74670;SDS011;63196;39.564;2.628;2023-08-08T01:40:48;0.00;;;0.00;;
74670;SDS011;63196;39.564;2.628;2023-08-08T01:43:14;0.10;;;0.10;;
74670;SDS011;63196;39.564;2.628;2023-08-08T01:45:40;0.00;;;0.00;;
74670;SDS011;63196;39.564;2.628;2023-08-08T01:48:07;0.00;;;0.00;;
74670;SDS011;63196;39.564;2.628;2023-08-08T01:50:33;0.10;;;0.10;;
74670;SDS011;63196;39.564;2.628;2023-08-08T01:52:58;0.10;;;0.00;;
74670;SDS011;63196;39.564;2.628;2023-08-08T01:55:23;0.00;;;0.00;;
74670;SDS011;63196;39.564;2.628;2023-08-08T01:57:49;0.00;;;0.00;;
74670;SDS011;63196;39.564;2.628;2023-08-08T02:00:14;0.10;;;0.10;;
74670;SDS011;63196;39.564;2.628;2023-08-08T02:02:39;0.00;;;0.00;;
74670;SDS011;63196;39.564;2.628;2023-08-08T02:05:05;0.10;;;0.10;;
74670;SDS011;63196;39.564;2.628;2023-08-08T02:07:30;0.00;;;0.00;;
74670;SDS011;63196;39.564;2.628;2023-08-08T02:09:56;0.00;;;0.00;;
74670;SDS011;63196;39.564;2.628;2023-08-08T02:12:21;0.00;;;0.00;;
74670;SDS011;63196;39.564;2.628;2023-08-08T02:14:46;0.00;;;0.00;;
74670;SDS011;63196;39.564;2.628;2023-08-08T02:17:12;0.00;;;0.00;;
74670;SDS011;63196;39.564;2.628;2023-08-08T02:19:37;0.00;;;0.00;;
74670;SDS011;63196;39.564;2.628;2023-08-08T02:22:03;0.00;;;0.00;;
74670;SDS011;63196;39.564;2.628;2023-08-08T02:24:28;0.00;;;0.00;;
74670;SDS011;63196;39.564;2.628;2023-08-08T02:26:54;0.00;;;0.00;;
74670;SDS011;63196;39.564;2.628;2023-08-08T02:29:19;0.00;;;0.00;;
74670;SDS011;63196;39.564;2.628;2023-08-08T02:31:44;0.00;;;0.00;;
74670;SDS011;63196;39.564;2.628;2023-08-08T02:34:10;0.00;;;0.00;;
74670;SDS011;63196;39.564;2.628;2023-08-08T02:36:35;0.00;;;0.00;;
74670;SDS011;63196;39.564;2.628;2023-08-08T02:39:01;0.00;;;0.00;;
74670;SDS011;63196;39.564;2.628;2023-08-08T02:41:26;0.00;;;0.00;;
74670;SDS011;63196;39.564;2.628;2023-08-08T02:43:51;0.00;;;0.00;;
74670;SDS011;63196;39.564;2.628;2023-08-08T02:46:17;0.00;;;0.00;;
74670;SDS011;63196;39.564;2.628;2023-08-08T02:48:42;0.00;;;0.00;;
74670;SDS011;63196;39.564;2.628;2023-08-08T02:51:08;0.00;;;0.00;;
74670;SDS011;63196;39.564;2.628;2023-08-08T02:53:33;0.00;;;0.00;;
74670;SDS011;63196;39.564;2.628;2023-08-08T02:55:58;0.00;;;0.00;;
74670;SDS011;63196;39.564;2.628;2023-08-08T02:58:24;0.00;;;0.00;;
74670;SDS011;63196;39.564;2.628;2023-08-08T03:00:49;0.00;;;0.00;;
74670;SDS011;63196;39.564;2.628;2023-08-08T03:03:14;0.00;;;0.00;;
74670;SDS011;63196;39.564;2.628;2023-08-08T03:05:40;0.00;;;0.00;;
74670;SDS011;63196;39.564;2.628;2023-08-08T03:08:05;0.00;;;0.00;;
74670;SDS011;63196;39.564;2.628;2023-08-08T03:10:30;0.00;;;0.00;;
74670;SDS011;63196;39.564;2.628;2023-08-08T03:12:56;0.00;;;0.00;;
74670;SDS011;63196;39.564;2.628;2023-08-08T03:15:21;0.00;;;0.00;;
74670;SDS011;63196;39.564;2.628;2023-08-08T03:17:46;0.00;;;0.00;;
74670;SDS011;63196;39.564;2.628;2023-08-08T03:20:12;0.00;;;0.00;;
74670;SDS011;63196;39.564;2.628;2023-08-08T03:22:37;0.00;;;0.00;;
74670;SDS011;63196;39.564;2.628;2023-08-08T03:25:03;0.10;;;0.00;;
74670;SDS011;63196;39.564;2.628;2023-08-08T03:27:31;0.00;;;0.00;;
74670;SDS011;63196;39.564;2.628;2023-08-08T03:29:56;0.00;;;0.00;;
74670;SDS011;63196;39.564;2.628;2023-08-08T03:32:22;0.00;;;0.00;;
74670;SDS011;63196;39.564;2.628;2023-08-08T03:34:47;0.00;;;0.00;;
74670;SDS011;63196;39.564;2.628;2023-08-08T03:37:13;0.00;;;0.00;;
74670;SDS011;63196;39.564;2.628;2023-08-08T03:39:38;0.00;;;0.00;;
74670;SDS011;63196;39.564;2.628;2023-08-08T03:42:04;0.00;;;0.00;;
74670;SDS011;63196;39.564;2.628;2023-08-08T03:44:29;0.00;;;0.00;;
74670;SDS011;63196;39.564;2.628;2023-08-08T03:46:55;0.00;;;0.00;;
74670;SDS011;63196;39.564;2.628;2023-08-08T03:49:20;0.00;;;0.00;;
74670;SDS011;63196;39.564;2.628;2023-08-08T03:51:45;0.00;;;0.00;;
74670;SDS011;63196;39.564;2.628;2023-08-08T03:54:12;0.00;;;0.00;;
74670;SDS011;63196;39.564;2.628;2023-08-08T03:56:38;0.00;;;0.00;;
74670;SDS011;63196;39.564;2.628;2023-08-08T03:59:03;0.00;;;0.00;;
74670;SDS011;63196;39.564;2.628;2023-08-08T04:01:28;0.00;;;0.00;;
74670;SDS011;63196;39.564;2.628;2023-08-08T04:03:54;0.00;;;0.00;;
74670;SDS011;63196;39.564;2.628;2023-08-08T04:06:19;0.00;;;0.00;;
74670;SDS011;63196;39.564;2.628;2023-08-08T04:08:44;0.00;;;0.00;;
74670;SDS011;63196;39.564;2.628;2023-08-08T04:11:10;0.00;;;0.00;;
74670;SDS011;63196;39.564;2.628;2023-08-08T04:13:35;0.00;;;0.00;;
74670;SDS011;63196;39.564;2.628;2023-08-08T04:16:00;0.00;;;0.00;;
74670;SDS011;63196;39.564;2.628;2023-08-08T04:18:26;0.00;;;0.00;;
74670;SDS011;63196;39.564;2.628;2023-08-08T04:20:51;0.00;;;0.00;;
74670;SDS011;63196;39.564;2.628;2023-08-08T04:23:17;0.00;;;0.00;;
74670;SDS011;63196;39.564;2.628;2023-08-08T04:25:42;0.00;;;0.00;;
74670;SDS011;63196;39.564;2.628;2023-08-08T04:28:07;0.00;;;0.00;;
74670;SDS011;63196;39.564;2.628;2023-08-08T04:30:33;0.00;;;0.00;;
74670;SDS011;63196;39.564;2.628;2023-08-08T04:32:58;0.00;;;0.00;;
74670;SDS011;63196;39.564;2.628;2023-08-08T04:35:24;0.00;;;0.00;;
74670;SDS011;63196;39.564;2.628;2023-08-08T04:37:49;0.00;;;0.00;;
74670;SDS011;63196;39.564;2.628;2023-08-08T04:40:15;0.00;;;0.00;;
74670;SDS011;63196;39.564;2.628;2023-08-08T04:42:40;0.10;;;0.10;;
74670;SDS011;63196;39.564;2.628;2023-08-08T04:45:06;0.00;;;0.00;;
74670;SDS011;63196;39.564;2.628;2023-08-08T04:47:32;0.00;;;0.00;;
74670;SDS011;63196;39.564;2.628;2023-08-08T04:49:57;0.00;;;0.00;;
74670;SDS011;63196;39.564;2.628;2023-08-08T04:52:23;0.00;;;0.00;;
74670;SDS011;63196;39.564;2.628;2023-08-08T04:54:49;0.10;;;0.00;;
74670;SDS011;63196;39.564;2.628;2023-08-08T04:57:14;0.00;;;0.00;;
74670;SDS011;63196;39.564;2.628;2023-08-08T04:59:39;0.10;;;0.00;;
74670;SDS011;63196;39.564;2.628;2023-08-08T05:02:05;0.10;;;0.10;;
74670;SDS011;63196;39.564;2.628;2023-08-08T05:04:30;0.00;;;0.00;;
74670;SDS011;63196;39.564;2.628;2023-08-08T05:06:56;0.00;;;0.00;;
74670;SDS011;63196;39.564;2.628;2023-08-08T05:09:22;0.00;;;0.00;;
74670;SDS011;63196;39.564;2.628;2023-08-08T05:11:51;0.00;;;0.00;;
74670;SDS011;63196;39.564;2.628;2023-08-08T05:14:17;0.10;;;0.00;;
74670;SDS011;63196;39.564;2.628;2023-08-08T05:16:42;0.00;;;0.00;;
74670;SDS011;63196;39.564;2.628;2023-08-08T05:19:07;0.00;;;0.00;;
74670;SDS011;63196;39.564;2.628;2023-08-08T05:21:34;0.00;;;0.00;;
74670;SDS011;63196;39.564;2.628;2023-08-08T05:23:59;0.00;;;0.00;;
74670;SDS011;63196;39.564;2.628;2023-08-08T05:26:25;0.00;;;0.00;;
74670;SDS011;63196;39.564;2.628;2023-08-08T05:28:50;0.00;;;0.00;;
74670;SDS011;63196;39.564;2.628;2023-08-08T05:31:15;0.00;;;0.00;;
74670;SDS011;63196;39.564;2.628;2023-08-08T05:33:41;0.00;;;0.00;;
74670;SDS011;63196;39.564;2.628;2023-08-08T05:36:07;0.00;;;0.00;;
74670;SDS011;63196;39.564;2.628;2023-08-08T05:38:32;0.00;;;0.00;;
74670;SDS011;63196;39.564;2.628;2023-08-08T05:40:57;0.20;;;0.00;;
74670;SDS011;63196;39.564;2.628;2023-08-08T05:43:23;0.00;;;0.00;;
74670;SDS011;63196;39.564;2.628;2023-08-08T05:45:48;0.00;;;0.00;;
74670;SDS011;63196;39.564;2.628;2023-08-08T05:48:14;0.00;;;0.00;;
74670;SDS011;63196;39.564;2.628;2023-08-08T05:50:39;0.10;;;0.10;;
74670;SDS011;63196;39.564;2.628;2023-08-08T05:53:05;0.00;;;0.00;;
74670;SDS011;63196;39.564;2.628;2023-08-08T05:55:30;0.00;;;0.00;;
74670;SDS011;63196;39.564;2.628;2023-08-08T05:57:56;0.00;;;0.00;;
74670;SDS011;63196;39.564;2.628;2023-08-08T06:00:21;0.00;;;0.00;;
74670;SDS011;63196;39.564;2.628;2023-08-08T06:02:46;0.00;;;0.00;;
74670;SDS011;63196;39.564;2.628;2023-08-08T06:05:12;0.00;;;0.00;;
74670;SDS011;63196;39.564;2.628;2023-08-08T06:07:37;0.00;;;0.00;;
74670;SDS011;63196;39.564;2.628;2023-08-08T06:10:03;0.00;;;0.00;;
74670;SDS011;63196;39.564;2.628;2023-08-08T06:12:28;0.00;;;0.00;;
74670;SDS011;63196;39.564;2.628;2023-08-08T06:14:53;0.00;;;0.00;;
74670;SDS011;63196;39.564;2.628;2023-08-08T06:17:19;0.00;;;0.00;;
74670;SDS011;63196;39.564;2.628;2023-08-08T06:19:45;0.00;;;0.00;;
74670;SDS011;63196;39.564;2.628;2023-08-08T06:22:10;0.00;;;0.00;;
74670;SDS011;63196;39.564;2.628;2023-08-08T06:24:35;0.00;;;0.00;;
74670;SDS011;63196;39.564;2.628;2023-08-08T06:27:01;0.00;;;0.00;;
74670;SDS011;63196;39.564;2.628;2023-08-08T06:29:26;0.00;;;0.00;;
74670;SDS011;63196;39.564;2.628;2023-08-08T06:31:52;0.00;;;0.00;;
74670;SDS011;63196;39.564;2.628;2023-08-08T06:34:18;0.00;;;0.00;;
74670;SDS011;63196;39.564;2.628;2023-08-08T06:36:43;0.00;;;0.00;;
74670;SDS011;63196;39.564;2.628;2023-08-08T06:39:08;0.00;;;0.00;;
74670;SDS011;63196;39.564;2.628;2023-08-08T06:41:36;0.00;;;0.00;;
74670;SDS011;63196;39.564;2.628;2023-08-08T06:44:03;0.00;;;0.00;;
74670;SDS011;63196;39.564;2.628;2023-08-08T06:46:29;0.10;;;0.00;;
74670;SDS011;63196;39.564;2.628;2023-08-08T06:48:54;0.00;;;0.00;;
74670;SDS011;63196;39.564;2.628;2023-08-08T06:53:47;0.00;;;0.00;;
74670;SDS011;63196;39.564;2.628;2023-08-08T06:56:12;0.00;;;0.00;;
74670;SDS011;63196;39.564;2.628;2023-08-08T06:58:38;0.00;;;0.00;;
74670;SDS011;63196;39.564;2.628;2023-08-08T07:01:03;0.00;;;0.00;;
74670;SDS011;63196;39.564;2.628;2023-08-08T07:03:29;0.00;;;0.00;;
74670;SDS011;63196;39.564;2.628;2023-08-08T07:05:54;0.00;;;0.00;;
74670;SDS011;63196;39.564;2.628;2023-08-08T07:08:19;0.00;;;0.00;;
74670;SDS011;63196;39.564;2.628;2023-08-08T07:10:45;0.00;;;0.00;;
74670;SDS011;63196;39.564;2.628;2023-08-08T07:13:10;0.00;;;0.00;;
74670;SDS011;63196;39.564;2.628;2023-08-08T07:15:36;0.00;;;0.00;;
74670;SDS011;63196;39.564;2.628;2023-08-08T07:18:02;0.00;;;0.00;;
74670;SDS011;63196;39.564;2.628;2023-08-08T07:20:27;0.10;;;0.00;;
74670;SDS011;63196;39.564;2.628;2023-08-08T07:22:54;0.00;;;0.00;;
74670;SDS011;63196;39.564;2.628;2023-08-08T07:25:19;0.00;;;0.00;;
74670;SDS011;63196;39.564;2.628;2023-08-08T07:27:45;0.00;;;0.00;;
74670;SDS011;63196;39.564;2.628;2023-08-08T07:30:10;0.00;;;0.00;;
74670;SDS011;63196;39.564;2.628;2023-08-08T07:32:37;0.00;;;0.00;;
74670;SDS011;63196;39.564;2.628;2023-08-08T07:35:02;0.00;;;0.00;;
74670;SDS011;63196;39.564;2.628;2023-08-08T07:37:31;0.00;;;0.00;;
74670;SDS011;63196;39.564;2.628;2023-08-08T07:39:57;0.10;;;0.10;;
74670;SDS011;63196;39.564;2.628;2023-08-08T07:42:23;0.10;;;0.00;;
74670;SDS011;63196;39.564;2.628;2023-08-08T07:44:48;0.00;;;0.00;;
74670;SDS011;63196;39.564;2.628;2023-08-08T07:47:13;0.00;;;0.00;;
74670;SDS011;63196;39.564;2.628;2023-08-08T07:49:39;0.00;;;0.00;;
74670;SDS011;63196;39.564;2.628;2023-08-08T07:52:05;0.00;;;0.00;;
74670;SDS011;63196;39.564;2.628;2023-08-08T07:54:30;0.00;;;0.00;;
74670;SDS011;63196;39.564;2.628;2023-08-08T07:56:55;0.00;;;0.00;;
74670;SDS011;63196;39.564;2.628;2023-08-08T07:59:21;0.00;;;0.00;;
74670;SDS011;63196;39.564;2.628;2023-08-08T08:01:46;0.00;;;0.00;;
74670;SDS011;63196;39.564;2.628;2023-08-08T08:04:12;0.10;;;0.00;;
74670;SDS011;63196;39.564;2.628;2023-08-08T08:06:37;0.00;;;0.00;;
74670;SDS011;63196;39.564;2.628;2023-08-08T08:09:02;0.00;;;0.00;;
74670;SDS011;63196;39.564;2.628;2023-08-08T08:11:28;0.00;;;0.00;;
74670;SDS011;63196;39.564;2.628;2023-08-08T08:13:54;0.00;;;0.00;;
74670;SDS011;63196;39.564;2.628;2023-08-08T08:16:19;0.00;;;0.00;;
74670;SDS011;63196;39.564;2.628;2023-08-08T08:18:48;0.00;;;0.00;;
74670;SDS011;63196;39.564;2.628;2023-08-08T08:21:14;0.00;;;0.00;;
74670;SDS011;63196;39.564;2.628;2023-08-08T08:23:39;0.00;;;0.00;;
74670;SDS011;63196;39.564;2.628;2023-08-08T08:26:05;0.00;;;0.00;;
74670;SDS011;63196;39.564;2.628;2023-08-08T08:28:31;0.00;;;0.00;;
74670;SDS011;63196;39.564;2.628;2023-08-08T08:30:57;0.00;;;0.00;;
74670;SDS011;63196;39.564;2.628;2023-08-08T08:33:22;0.00;;;0.00;;
74670;SDS011;63196;39.564;2.628;2023-08-08T08:35:47;0.00;;;0.00;;
74670;SDS011;63196;39.564;2.628;2023-08-08T08:38:13;0.00;;;0.00;;
74670;SDS011;63196;39.564;2.628;2023-08-08T08:40:39;0.00;;;0.00;;
74670;SDS011;63196;39.564;2.628;2023-08-08T08:43:06;0.00;;;0.00;;
74670;SDS011;63196;39.564;2.628;2023-08-08T08:45:32;0.10;;;0.00;;
74670;SDS011;63196;39.564;2.628;2023-08-08T08:47:59;0.00;;;0.00;;
74670;SDS011;63196;39.564;2.628;2023-08-08T08:50:26;0.20;;;0.20;;
74670;SDS011;63196;39.564;2.628;2023-08-08T08:52:52;0.00;;;0.00;;
74670;SDS011;63196;39.564;2.628;2023-08-08T08:55:21;0.10;;;0.10;;
74670;SDS011;63196;39.564;2.628;2023-08-08T08:57:46;0.00;;;0.00;;
74670;SDS011;63196;39.564;2.628;2023-08-08T09:00:12;0.00;;;0.00;;
74670;SDS011;63196;39.564;2.628;2023-08-08T09:02:38;0.20;;;0.20;;
74670;SDS011;63196;39.564;2.628;2023-08-08T09:05:04;0.20;;;0.20;;
74670;SDS011;63196;39.564;2.628;2023-08-08T09:07:29;0.00;;;0.00;;
74670;SDS011;63196;39.564;2.628;2023-08-08T09:09:57;0.10;;;0.10;;
74670;SDS011;63196;39.564;2.628;2023-08-08T09:12:22;0.00;;;0.00;;
74670;SDS011;63196;39.564;2.628;2023-08-08T09:17:15;0.00;;;0.00;;
74670;SDS011;63196;39.564;2.628;2023-08-08T09:19:44;0.10;;;0.10;;
74670;SDS011;63196;39.564;2.628;2023-08-08T09:22:11;0.10;;;0.10;;
74670;SDS011;63196;39.564;2.628;2023-08-08T09:24:39;0.10;;;0.10;;
74670;SDS011;63196;39.564;2.628;2023-08-08T09:27:06;0.10;;;0.10;;
74670;SDS011;63196;39.564;2.628;2023-08-08T09:29:31;0.10;;;0.10;;
74670;SDS011;63196;39.564;2.628;2023-08-08T09:34:25;0.20;;;0.20;;
74670;SDS011;63196;39.564;2.628;2023-08-08T09:36:51;0.20;;;0.20;;
74670;SDS011;63196;39.564;2.628;2023-08-08T09:39:17;0.10;;;0.10;;
74670;SDS011;63196;39.564;2.628;2023-08-08T09:41:42;0.30;;;0.30;;
74670;SDS011;63196;39.564;2.628;2023-08-08T09:44:10;0.20;;;0.20;;
74670;SDS011;63196;39.564;2.628;2023-08-08T09:46:36;0.20;;;0.20;;
74670;SDS011;63196;39.564;2.628;2023-08-08T09:49:02;0.80;;;0.60;;
74670;SDS011;63196;39.564;2.628;2023-08-08T09:51:28;0.30;;;0.30;;
74670;SDS011;63196;39.564;2.628;2023-08-08T09:53:53;0.20;;;0.20;;
74670;SDS011;63196;39.564;2.628;2023-08-08T09:56:20;0.30;;;0.30;;
74670;SDS011;63196;39.564;2.628;2023-08-08T09:58:46;0.30;;;0.30;;
74670;SDS011;63196;39.564;2.628;2023-08-08T10:01:11;0.30;;;0.30;;
74670;SDS011;63196;39.564;2.628;2023-08-08T10:06:03;0.50;;;0.50;;
74670;SDS011;63196;39.564;2.628;2023-08-08T10:08:28;0.30;;;0.30;;
74670;SDS011;63196;39.564;2.628;2023-08-08T10:10:55;0.30;;;0.30;;
74670;SDS011;63196;39.564;2.628;2023-08-08T10:13:22;0.40;;;0.40;;
74670;SDS011;63196;39.564;2.628;2023-08-08T10:15:47;0.30;;;0.30;;
74670;SDS011;63196;39.564;2.628;2023-08-08T10:18:13;0.30;;;0.30;;
74670;SDS011;63196;39.564;2.628;2023-08-08T10:20:41;0.40;;;0.40;;
74670;SDS011;63196;39.564;2.628;2023-08-08T10:23:07;0.40;;;0.40;;
74670;SDS011;63196;39.564;2.628;2023-08-08T10:25:33;1.20;;;0.60;;
74670;SDS011;63196;39.564;2.628;2023-08-08T10:28:04;0.30;;;0.30;;
74670;SDS011;63196;39.564;2.628;2023-08-08T10:30:41;0.60;;;0.40;;
74670;SDS011;63196;39.564;2.628;2023-08-08T10:33:14;0.50;;;0.50;;
74670;SDS011;63196;39.564;2.628;2023-08-08T10:35:40;0.60;;;0.50;;
74670;SDS011;63196;39.564;2.628;2023-08-08T10:38:08;0.40;;;0.40;;
74670;SDS011;63196;39.564;2.628;2023-08-08T10:40:34;0.80;;;0.60;;
74670;SDS011;63196;39.564;2.628;2023-08-08T10:43:00;0.50;;;0.50;;
74670;SDS011;63196;39.564;2.628;2023-08-08T10:45:34;0.80;;;0.50;;
74670;SDS011;63196;39.564;2.628;2023-08-08T10:48:07;0.90;;;0.60;;
74670;SDS011;63196;39.564;2.628;2023-08-08T10:50:32;1.00;;;0.60;;
74670;SDS011;63196;39.564;2.628;2023-08-08T10:53:03;1.70;;;1.00;;
74670;SDS011;63196;39.564;2.628;2023-08-08T10:55:32;0.90;;;0.50;;
74670;SDS011;63196;39.564;2.628;2023-08-08T10:57:59;1.00;;;0.50;;
74670;SDS011;63196;39.564;2.628;2023-08-08T11:00:27;1.10;;;0.60;;
74670;SDS011;63196;39.564;2.628;2023-08-08T11:02:53;1.40;;;0.70;;
74670;SDS011;63196;39.564;2.628;2023-08-08T11:05:19;1.30;;;0.70;;
74670;SDS011;63196;39.564;2.628;2023-08-08T11:07:45;1.30;;;0.60;;
74670;SDS011;63196;39.564;2.628;2023-08-08T11:10:10;1.50;;;0.70;;
74670;SDS011;63196;39.564;2.628;2023-08-08T11:12:36;1.40;;;0.80;;
74670;SDS011;63196;39.564;2.628;2023-08-08T11:15:01;1.40;;;0.70;;
74670;SDS011;63196;39.564;2.628;2023-08-08T11:17:27;1.30;;;0.70;;
74670;SDS011;63196;39.564;2.628;2023-08-08T11:19:53;1.50;;;0.90;;
74670;SDS011;63196;39.564;2.628;2023-08-08T11:22:23;1.20;;;0.60;;
74670;SDS011;63196;39.564;2.628;2023-08-08T11:24:49;1.40;;;0.70;;
74670;SDS011;63196;39.564;2.628;2023-08-08T11:27:17;1.30;;;0.70;;
74670;SDS011;63196;39.564;2.628;2023-08-08T11:29:49;1.30;;;0.70;;
74670;SDS011;63196;39.564;2.628;2023-08-08T11:32:15;1.50;;;0.70;;
74670;SDS011;63196;39.564;2.628;2023-08-08T11:34:41;1.50;;;0.70;;
74670;SDS011;63196;39.564;2.628;2023-08-08T11:37:07;1.70;;;0.90;;
74670;SDS011;63196;39.564;2.628;2023-08-08T11:39:33;1.40;;;0.80;;
74670;SDS011;63196;39.564;2.628;2023-08-08T11:41:59;1.40;;;0.70;;
74670;SDS011;63196;39.564;2.628;2023-08-08T11:44:25;1.60;;;0.90;;
74670;SDS011;63196;39.564;2.628;2023-08-08T11:46:50;1.70;;;0.80;;
74670;SDS011;63196;39.564;2.628;2023-08-08T11:49:16;1.60;;;0.90;;
74670;SDS011;63196;39.564;2.628;2023-08-08T11:51:45;1.50;;;0.80;;
74670;SDS011;63196;39.564;2.628;2023-08-08T11:54:11;1.80;;;0.90;;
74670;SDS011;63196;39.564;2.628;2023-08-08T11:56:37;1.90;;;1.00;;
74670;SDS011;63196;39.564;2.628;2023-08-08T11:59:02;1.60;;;0.90;;
74670;SDS011;63196;39.564;2.628;2023-08-08T12:01:30;2.00;;;1.00;;
74670;SDS011;63196;39.564;2.628;2023-08-08T12:03:56;1.80;;;1.00;;
74670;SDS011;63196;39.564;2.628;2023-08-08T12:06:21;1.90;;;1.30;;
74670;SDS011;63196;39.564;2.628;2023-08-08T12:08:47;1.90;;;1.10;;
74670;SDS011;63196;39.564;2.628;2023-08-08T12:11:13;1.90;;;1.10;;
74670;SDS011;63196;39.564;2.628;2023-08-08T12:13:42;2.00;;;1.10;;
74670;SDS011;63196;39.564;2.628;2023-08-08T12:16:08;2.10;;;1.30;;
74670;SDS011;63196;39.564;2.628;2023-08-08T12:18:35;1.70;;;1.00;;
74670;SDS011;63196;39.564;2.628;2023-08-08T12:21:00;2.10;;;1.40;;
74670;SDS011;63196;39.564;2.628;2023-08-08T12:23:26;1.90;;;1.20;;
74670;SDS011;63196;39.564;2.628;2023-08-08T12:25:52;2.10;;;1.30;;
74670;SDS011;63196;39.564;2.628;2023-08-08T12:28:18;2.00;;;1.20;;
74670;SDS011;63196;39.564;2.628;2023-08-08T12:30:43;2.10;;;1.40;;
74670;SDS011;63196;39.564;2.628;2023-08-08T12:33:09;2.00;;;1.20;;
74670;SDS011;63196;39.564;2.628;2023-08-08T12:35:34;2.10;;;1.30;;
74670;SDS011;63196;39.564;2.628;2023-08-08T12:37:59;1.70;;;1.10;;
74670;SDS011;63196;39.564;2.628;2023-08-08T12:40:25;2.10;;;1.10;;
74670;SDS011;63196;39.564;2.628;2023-08-08T12:42:50;1.80;;;1.30;;
74670;SDS011;63196;39.564;2.628;2023-08-08T12:45:16;2.20;;;1.40;;
74670;SDS011;63196;39.564;2.628;2023-08-08T12:47:43;2.40;;;1.50;;
74670;SDS011;63196;39.564;2.628;2023-08-08T12:50:08;2.20;;;1.30;;
74670;SDS011;63196;39.564;2.628;2023-08-08T12:52:34;2.30;;;1.50;;
74670;SDS011;63196;39.564;2.628;2023-08-08T12:54:59;2.30;;;1.30;;
74670;SDS011;63196;39.564;2.628;2023-08-08T12:57:25;2.40;;;1.50;;
74670;SDS011;63196;39.564;2.628;2023-08-08T12:59:50;2.30;;;1.60;;
74670;SDS011;63196;39.564;2.628;2023-08-08T13:02:15;2.20;;;1.40;;
74670;SDS011;63196;39.564;2.628;2023-08-08T13:04:41;2.20;;;1.30;;
74670;SDS011;63196;39.564;2.628;2023-08-08T13:07:07;2.20;;;1.30;;
74670;SDS011;63196;39.564;2.628;2023-08-08T13:09:32;2.20;;;1.40;;
74670;SDS011;63196;39.564;2.628;2023-08-08T13:11:58;2.20;;;1.50;;
74670;SDS011;63196;39.564;2.628;2023-08-08T13:14:23;2.10;;;1.40;;
74670;SDS011;63196;39.564;2.628;2023-08-08T13:16:49;2.30;;;1.40;;
74670;SDS011;63196;39.564;2.628;2023-08-08T13:19:15;2.20;;;1.20;;
74670;SDS011;63196;39.564;2.628;2023-08-08T13:21:45;2.00;;;1.30;;
74670;SDS011;63196;39.564;2.628;2023-08-08T13:24:10;2.00;;;1.40;;
74670;SDS011;63196;39.564;2.628;2023-08-08T13:26:38;2.30;;;1.50;;
74670;SDS011;63196;39.564;2.628;2023-08-08T13:29:07;2.00;;;1.30;;
74670;SDS011;63196;39.564;2.628;2023-08-08T13:33:58;1.90;;;1.10;;
74670;SDS011;63196;39.564;2.628;2023-08-08T13:36:24;2.20;;;1.30;;
74670;SDS011;63196;39.564;2.628;2023-08-08T13:38:49;1.90;;;1.00;;
74670;SDS011;63196;39.564;2.628;2023-08-08T13:41:14;1.90;;;1.00;;
74670;SDS011;63196;39.564;2.628;2023-08-08T13:43:40;1.80;;;1.00;;
74670;SDS011;63196;39.564;2.628;2023-08-08T13:46:05;2.00;;;1.00;;
74670;SDS011;63196;39.564;2.628;2023-08-08T13:48:34;1.80;;;1.00;;
74670;SDS011;63196;39.564;2.628;2023-08-08T13:50:59;2.00;;;1.00;;
74670;SDS011;63196;39.564;2.628;2023-08-08T13:53:25;1.80;;;1.10;;
74670;SDS011;63196;39.564;2.628;2023-08-08T13:55:50;2.00;;;1.30;;
74670;SDS011;63196;39.564;2.628;2023-08-08T13:58:15;2.60;;;2.00;;
74670;SDS011;63196;39.564;2.628;2023-08-08T14:00:41;2.10;;;1.30;;
74670;SDS011;63196;39.564;2.628;2023-08-08T14:03:06;2.20;;;1.50;;
74670;SDS011;63196;39.564;2.628;2023-08-08T14:05:32;2.00;;;1.20;;
74670;SDS011;63196;39.564;2.628;2023-08-08T14:07:57;1.80;;;0.90;;
74670;SDS011;63196;39.564;2.628;2023-08-08T14:10:22;1.70;;;1.10;;
74670;SDS011;63196;39.564;2.628;2023-08-08T14:12:48;1.80;;;1.00;;
74670;SDS011;63196;39.564;2.628;2023-08-08T14:15:13;1.80;;;1.10;;
74670;SDS011;63196;39.564;2.628;2023-08-08T14:17:38;1.80;;;0.90;;
74670;SDS011;63196;39.564;2.628;2023-08-08T14:20:04;1.90;;;1.10;;
74670;SDS011;63196;39.564;2.628;2023-08-08T14:22:30;1.80;;;0.90;;
74670;SDS011;63196;39.564;2.628;2023-08-08T14:24:55;1.50;;;0.80;;
74670;SDS011;63196;39.564;2.628;2023-08-08T14:27:21;1.80;;;0.90;;
74670;SDS011;63196;39.564;2.628;2023-08-08T14:29:46;1.40;;;0.70;;
74670;SDS011;63196;39.564;2.628;2023-08-08T14:32:11;1.40;;;0.70;;
74670;SDS011;63196;39.564;2.628;2023-08-08T14:34:37;1.70;;;1.00;;
74670;SDS011;63196;39.564;2.628;2023-08-08T14:37:03;1.60;;;0.80;;
74670;SDS011;63196;39.564;2.628;2023-08-08T14:39:28;1.20;;;0.70;;
74670;SDS011;63196;39.564;2.628;2023-08-08T14:41:54;1.20;;;0.70;;
74670;SDS011;63196;39.564;2.628;2023-08-08T14:44:20;1.10;;;0.60;;
74670;SDS011;63196;39.564;2.628;2023-08-08T14:46:45;0.80;;;0.50;;
74670;SDS011;63196;39.564;2.628;2023-08-08T14:49:11;1.10;;;0.70;;
74670;SDS011;63196;39.564;2.628;2023-08-08T14:51:36;1.00;;;0.70;;